.
WxDataArchive / Data Records for 2007-11-19
2007-11-18 November 2007 2007-11-20

Data Records for Monday, 19 November 2007

Time	Temp	Chill	HIndex	Humid	Dewpt	 Wind 	HiWind	WindDir	Rain 	Barom 
-----	----	-----	------	-----	-----	------	------	-------	-----	----- 
00:00	35.0	35.0	35.0	89	32.1	1	3	112	0.00	30.257 
00:05	35.0	35.0	35.0	89	32.1	1	3	112	0.00	30.254 
00:10	35.0	35.0	35.0	90	32.4	1	4	112	0.00	30.254 
00:15	34.9	34.9	34.9	90	32.3	1	3	112	0.00	30.251 
00:20	34.9	34.9	34.9	90	32.3	1	3	112	0.00	30.251 
00:25	35.0	35.0	35.0	90	32.4	1	4	90	0.00	30.251 
00:30	35.0	35.0	35.0	90	32.4	0	2	90	0.00	30.252 
00:35	35.0	35.0	35.0	90	32.4	1	2	90	0.00	30.250 
00:40	35.2	35.2	35.2	91	32.8	1	3	90	0.00	30.245 
00:45	35.2	35.2	35.2	91	32.8	2	4	90	0.00	30.246 
00:50	35.3	35.3	35.3	90	32.7	1	3	135	0.00	30.245 
00:55	35.3	35.3	35.3	91	32.9	1	4	112	0.00	30.242 
01:00	35.5	35.5	35.5	91	33.1	1	3	112	0.00	30.239 
01:05	35.5	35.5	35.5	90	32.9	1	3	112	0.00	30.239 
01:10	35.5	35.5	35.5	90	32.9	1	3	90	0.00	30.239 
01:15	35.6	35.6	35.6	90	33.0	0	2	90	0.00	30.239 
01:20	35.6	35.6	35.6	90	33.0	0	2	90	0.00	30.238 
01:25	35.8	35.8	35.8	90	33.2	0	2	90	0.00	30.235 
01:30	35.8	35.8	35.8	90	33.2	0	2	90	0.00	30.232 
01:35	35.8	35.8	35.8	90	33.2	0	2	90	0.00	30.230 
01:40	35.9	35.9	35.9	90	33.3	0	2	90	0.00	30.226 
01:45	36.0	36.0	36.0	90	33.4	1	3	90	0.00	30.224 
01:50	36.0	36.0	36.0	89	33.1	1	4	90	0.00	30.224 
01:55	36.2	36.2	36.2	89	33.3	0	2	90	0.00	30.226 
02:00	36.2	36.2	36.2	89	33.3	1	2	90	0.00	30.223 
02:05	36.2	36.2	36.2	89	33.3	1	5	90	0.00	30.219 
02:10	36.2	36.2	36.2	89	33.3	1	4	90	0.00	30.219 
02:15	36.2	36.2	36.2	89	33.3	1	3	90	0.00	30.222 
02:20	36.2	36.2	36.2	90	33.6	1	3	90	0.00	30.223 
02:25	36.2	36.2	36.2	90	33.6	1	2	90	0.00	30.223 
02:30	36.2	36.2	36.2	90	33.6	1	2	90	0.00	30.223 
02:35	36.2	36.2	36.2	90	33.6	1	3	90	0.00	30.221 
02:40	36.2	36.2	36.2	90	33.6	1	2	90	0.00	30.222 
02:45	36.2	36.2	36.2	90	33.6	0	1	90	0.00	30.225 
02:50	36.2	36.2	36.2	90	33.6	1	2	90	0.00	30.223 
02:55	36.3	36.3	36.3	90	33.7	0	2	90	0.00	30.224 
03:00	36.3	36.3	36.3	90	33.7	0	1	90	0.00	30.229 
03:05	36.5	36.5	36.5	91	34.1	0	2	90	0.00	30.223 
03:10	36.5	36.5	36.5	91	34.1	0	2	90	0.00	30.224 
03:15	36.5	36.5	36.5	91	34.1	0	1	90	0.00	30.227 
03:20	36.6	36.6	36.6	91	34.2	0	2	90	0.00	30.222 
03:25	36.6	36.6	36.6	91	34.2	0	1	90	0.00	30.222 
03:30	36.6	36.6	36.6	91	34.2	0	2	90	0.00	30.218 
03:35	36.8	36.8	36.8	91	34.4	1	3	90	0.00	30.211 
03:40	36.8	36.8	36.8	91	34.4	0	2	90	0.00	30.209 
03:45	36.8	36.8	36.8	91	34.4	0	1	90	0.00	30.211 
03:50	36.8	36.8	36.8	91	34.4	0	2	90	0.00	30.210 
03:55	36.8	36.8	36.8	91	34.4	1	3	90	0.00	30.208 
04:00	36.8	36.8	36.8	91	34.4	1	1	90	0.00	30.207 
04:05	36.9	36.9	36.9	91	34.5	1	3	90	0.00	30.206 
04:10	36.9	36.9	36.9	91	34.5	1	4	90	0.00	30.206 
04:15	36.9	36.9	36.9	91	34.5	1	3	90	0.00	30.205 
04:20	37.0	37.0	37.0	91	34.6	1	3	90	0.00	30.209 
04:25	37.0	37.0	37.0	91	34.6	1	2	90	0.00	30.209 
04:30	37.2	37.2	37.2	91	34.8	0	2	90	0.00	30.211 
04:35	37.2	37.2	37.2	91	34.8	1	3	90	0.00	30.207 
04:40	37.0	37.0	37.0	91	34.6	1	3	90	0.00	30.202 
04:45	36.9	36.9	36.9	91	34.5	1	3	90	0.00	30.198 
04:50	36.9	36.9	36.9	91	34.5	1	3	90	0.00	30.202 
04:55	36.9	36.9	36.9	91	34.5	1	2	90	0.00	30.201 
05:00	36.9	36.9	36.9	91	34.5	1	4	90	0.00	30.193 
05:05	36.9	36.9	36.9	91	34.5	1	3	90	0.00	30.192 
05:10	36.9	36.9	36.9	91	34.5	1	5	112	0.00	30.187 
05:15	36.9	36.9	36.9	91	34.5	1	3	112	0.00	30.182 
05:20	36.9	36.9	36.9	91	34.5	1	4	112	0.00	30.185 
05:25	37.0	37.0	37.0	91	34.6	2	4	112	0.00	30.188 
05:30	37.0	37.0	37.0	91	34.6	1	3	112	0.00	30.191 
05:35	37.2	37.2	37.2	91	34.8	2	4	90	0.00	30.190 
05:40	37.2	37.2	37.2	90	34.5	2	5	90	0.00	30.190 
05:45	37.3	37.3	37.3	90	34.6	2	5	112	0.00	30.190 
05:50	37.5	37.5	37.5	90	34.8	2	5	112	0.00	30.178 
05:55	37.5	37.5	37.5	89	34.6	3	5	112	0.00	30.175 
06:00	37.5	37.5	37.5	89	34.6	2	5	90	0.00	30.176 
06:05	37.6	37.6	37.6	89	34.7	3	5	112	0.00	30.175 
06:10	37.6	37.6	37.6	88	34.4	2	6	112	0.00	30.175 
06:15	37.6	37.6	37.6	88	34.4	2	7	112	0.00	30.171 
06:20	37.6	37.6	37.6	88	34.4	1	4	112	0.00	30.164 
06:25	37.6	37.6	37.6	88	34.4	1	4	112	0.00	30.165 
06:30	37.6	37.6	37.6	88	34.4	1	5	90	0.00	30.174 
06:35	37.8	37.8	37.8	88	34.6	1	7	90	0.00	30.181 
06:40	37.8	37.8	37.8	88	34.6	1	6	112	0.00	30.187 
06:45	37.8	37.8	37.8	88	34.6	1	5	112	0.00	30.190 
06:50	37.9	37.9	37.9	88	34.7	1	3	112	0.00	30.185 
06:55	37.9	37.9	37.9	88	34.7	1	4	112	0.00	30.177 
07:00	37.9	37.9	37.9	88	34.7	2	4	112	0.00	30.176 
07:05	37.9	37.9	37.9	88	34.7	1	5	90	0.00	30.184 
07:10	37.9	37.9	37.9	88	34.7	1	4	112	0.00	30.184 
07:15	37.9	37.9	37.9	88	34.7	2	5	90	0.00	30.180 
07:20	37.9	37.9	37.9	88	34.7	1	3	158	0.00	30.182 
07:25	37.9	37.9	37.9	88	34.7	1	3	112	0.00	30.180 
07:30	37.9	37.9	37.9	88	34.7	0	3	112	0.00	30.181 
07:35	37.9	37.9	37.9	88	34.7	1	3	112	0.00	30.181 
07:40	37.9	37.9	37.9	88	34.7	1	3	112	0.00	30.188 
07:45	38.0	38.0	38.0	88	34.8	1	4	112	0.00	30.190 
07:50	38.0	38.0	38.0	88	34.8	0	1	112	0.00	30.190 
07:55	38.2	38.2	38.2	88	35.0	1	3	112	0.00	30.180 
08:00	38.2	38.2	38.2	87	34.7	1	5	90	0.00	30.176 
08:05	38.2	38.2	38.2	87	34.7	1	4	112	0.00	30.170 
08:10	38.2	38.2	38.2	87	34.7	1	2	112	0.00	30.167 
08:15	38.2	38.2	38.2	87	34.7	2	5	112	0.00	30.163 
08:20	38.2	38.2	38.2	87	34.7	2	4	112	0.00	30.162 
08:25	38.2	38.2	38.2	87	34.7	1	5	112	0.00	30.160 
08:30	38.3	38.3	38.3	87	34.8	2	3	112	0.00	30.153 
08:35	38.3	38.3	38.3	86	34.5	1	6	112	0.00	30.148 
08:40	38.5	38.5	38.5	86	34.7	1	4	112	0.00	30.146 
08:45	38.6	38.6	38.6	86	34.8	1	4	135	0.00	30.146 
08:50	38.8	38.8	38.8	86	35.0	1	3	112	0.00	30.148 
08:55	38.9	38.9	38.9	85	34.8	1	3	112	0.00	30.151 
09:00	38.9	38.9	38.9	85	34.8	1	3	45	0.00	30.152 
09:05	39.2	39.2	39.2	85	35.1	1	3	45	0.00	30.148 
09:10	39.5	39.5	39.5	85	35.4	1	4	90	0.00	30.146 
09:15	39.8	39.8	39.8	84	35.4	1	5	90	0.00	30.142 
09:20	40.2	40.2	40.2	84	35.8	1	4	135	0.00	30.139 
09:25	40.5	40.5	40.5	84	36.1	1	3	112	0.00	30.138 
09:30	40.8	40.8	40.8	83	36.0	2	4	90	0.00	30.135 
09:35	40.9	40.9	40.9	82	35.8	1	6	90	0.00	30.134 
09:40	40.9	40.9	40.9	82	35.8	1	3	68	0.00	30.142 
09:45	41.1	41.1	41.1	83	36.3	0	3	135	0.00	30.144 
09:50	41.1	41.1	41.1	82	36.0	1	4	135	0.00	30.143 
09:55	41.2	41.2	41.2	82	36.1	1	2	135	0.00	30.144 
10:00	41.5	41.5	41.5	82	36.4	0	2	135	0.00	30.142 
10:05	41.8	41.8	41.8	82	36.7	0	2	135	0.00	30.143 
10:10	42.1	42.1	42.1	82	37.0	0	3	135	0.00	30.144 
10:15	42.3	42.3	42.3	81	36.9	1	3	135	0.00	30.144 
10:20	42.5	42.5	42.5	81	37.1	1	4	158	0.00	30.144 
10:25	42.8	42.8	42.8	81	37.4	1	3	112	0.00	30.140 
10:30	42.9	42.9	42.9	80	37.2	1	3	112	0.00	30.132 
10:35	43.1	43.1	43.1	80	37.4	1	4	90	0.00	30.132 
10:40	43.2	43.2	43.2	80	37.5	1	3	90	0.00	30.135 
10:45	43.2	43.2	43.2	80	37.5	1	4	90	0.00	30.129 
10:50	43.5	43.5	43.5	80	37.7	1	3	90	0.00	30.126 
10:55	43.6	43.6	43.6	80	37.8	1	4	90	0.00	30.126 
11:00	43.8	43.8	43.8	80	38.0	1	3	68	0.00	30.123 
11:05	44.1	44.1	44.1	81	38.6	1	3	68	0.00	30.121 
11:10	44.2	44.2	44.2	80	38.4	2	5	90	0.00	30.119 
11:15	44.3	44.3	44.3	79	38.2	1	3	112	0.00	30.126 
11:20	44.5	44.5	44.5	80	38.7	1	3	112	0.00	30.123 
11:25	44.6	44.6	44.6	79	38.5	1	3	68	0.00	30.116 
11:30	44.6	44.6	44.6	79	38.5	0	3	112	0.00	30.114 
11:35	44.6	44.6	44.6	79	38.5	1	4	90	0.00	30.110 
11:40	44.6	44.6	44.6	79	38.5	1	3	90	0.00	30.107 
11:45	44.8	44.8	44.8	79	38.7	1	2	112	0.00	30.103 
11:50	44.8	44.8	44.8	79	38.7	1	2	112	0.00	30.097 
11:55	44.9	44.9	44.9	79	38.8	1	3	90	0.00	30.091 
12:00	45.2	45.2	45.2	80	39.4	1	4	68	0.00	30.088 
12:05	45.4	45.4	45.4	79	39.3	1	3	68	0.00	30.082 
12:10	45.5	45.5	45.5	79	39.4	1	3	22	0.00	30.077 
12:15	45.7	45.7	45.7	79	39.6	0	3	202	0.00	30.077 
12:20	45.7	45.7	45.7	79	39.6	1	3	90	0.00	30.077 
12:25	45.8	45.8	45.8	80	40.0	0	1	68	0.00	30.075 
12:30	46.0	46.0	46.0	80	40.2	0	2	270	0.00	30.075 
12:35	46.1	46.1	46.1	79	40.0	0	2	270	0.00	30.076 
12:40	46.2	46.2	46.2	79	40.1	0	1	248	0.00	30.075 
12:45	46.5	46.5	46.5	79	40.3	0	2	248	0.00	30.069 
12:50	46.7	46.7	46.7	79	40.5	0	3	90	0.00	30.062 
12:55	46.8	46.8	46.8	80	41.0	1	4	90	0.00	30.060 
13:00	47.1	47.1	47.1	80	41.3	0	2	90	0.00	30.059 
13:05	47.1	47.1	47.1	81	41.6	0	2	90	0.00	30.057 
13:10	47.3	47.3	47.3	82	42.1	0	3	90	0.00	30.057 
13:15	47.3	47.3	47.3	83	42.4	1	3	135	0.00	30.049 
13:20	47.4	47.4	47.4	83	42.5	0	2	112	0.00	30.044 
13:25	47.4	47.4	47.4	84	42.8	1	7	90	0.00	30.041 
13:30	47.6	47.6	47.6	84	43.0	1	3	112	0.00	30.033 
13:35	47.6	47.6	47.6	84	43.0	1	4	90	0.00	30.031 
13:40	47.6	47.6	47.6	85	43.3	1	3	68	0.00	30.027 
13:45	47.7	47.7	47.7	85	43.4	1	4	90	0.00	30.026 
13:50	47.7	47.7	47.7	85	43.4	1	3	112	0.00	30.021 
13:55	47.9	47.9	47.9	85	43.6	1	5	90	0.00	30.012 
14:00	47.9	47.9	47.9	86	43.9	1	2	90	0.00	30.018 
14:05	48.2	48.2	48.2	86	44.2	1	3	112	0.00	30.018 
14:10	48.3	48.3	48.3	86	44.3	2	5	112	0.00	30.010 
14:15	48.5	48.5	48.5	87	44.8	1	4	90	0.00	30.009 
14:20	48.5	48.5	48.5	87	44.8	1	3	112	0.00	30.007 
14:25	48.6	48.6	48.6	87	44.9	1	4	112	0.00	29.998 
14:30	48.6	48.6	48.6	87	44.9	1	3	112	0.00	29.996 
14:35	48.8	48.8	48.8	87	45.1	1	9	112	0.00	29.997 
14:40	48.8	48.8	48.8	87	45.1	0	4	112	0.00	29.996 
14:45	48.9	48.9	48.9	87	45.2	0	2	112	0.00	29.994 
14:50	48.9	48.9	48.9	87	45.2	1	4	112	0.00	29.993 
14:55	49.1	49.1	49.1	87	45.4	1	3	135	0.00	29.992 
15:00	49.2	49.2	49.2	88	45.8	1	4	90	0.00	29.989 
15:05	49.2	49.2	49.2	88	45.8	1	2	90	0.00	29.982 
15:10	49.4	49.4	49.4	88	46.0	1	3	68	0.00	29.978 
15:15	49.5	49.5	49.5	88	46.1	1	6	112	0.00	29.977 
15:20	49.5	49.5	49.5	88	46.1	1	3	45	0.00	29.975 
15:25	49.5	49.5	49.5	89	46.4	1	4	90	0.00	29.973 
15:30	49.6	49.6	49.6	89	46.5	1	3	90	0.00	29.972 
15:35	49.6	49.6	49.6	89	46.5	1	2	90	0.00	29.975 
15:40	49.8	49.8	49.8	89	46.7	0	3	90	0.00	29.972 
15:45	49.8	49.8	49.8	89	46.7	1	6	90	0.00	29.972 
15:50	49.8	49.8	49.8	89	46.7	1	5	90	0.00	29.973 
15:55	49.9	49.9	49.9	90	47.1	1	2	90	0.00	29.971 
16:00	49.9	49.9	49.9	90	47.1	0	2	45	0.00	29.963 
16:05	49.9	49.9	49.9	90	47.1	1	7	112	0.00	29.961 
16:10	50.1	50.1	50.1	90	47.3	1	4	90	0.00	29.961 
16:15	50.1	50.1	50.1	90	47.3	1	5	90	0.00	29.960 
16:20	50.2	50.2	50.2	90	47.4	1	4	90	0.00	29.959 
16:25	50.2	50.2	50.2	90	47.4	0	3	112	0.00	29.960 
16:30	50.4	50.4	50.4	90	47.6	0	1	112	0.00	29.959 
16:35	50.4	50.4	50.4	90	47.6	1	3	112	0.00	29.956 
16:40	50.5	50.5	50.5	90	47.7	0	2	112	0.00	29.952 
16:45	50.5	50.5	50.5	90	47.7	0	2	112	0.00	29.950 
16:50	50.7	50.7	50.7	90	47.9	1	4	112	0.00	29.944 
16:55	50.7	50.7	50.7	90	47.9	0	2	112	0.00	29.945 
17:00	50.8	50.8	50.8	90	48.0	1	3	90	0.00	29.944 
17:05	51.0	51.0	51.0	90	48.2	1	3	90	0.00	29.943 
17:10	51.0	51.0	51.0	90	48.2	0	3	90	0.00	29.942 
17:15	51.1	51.1	51.1	90	48.3	1	3	90	0.00	29.943 
17:20	51.3	51.3	51.3	91	48.8	1	4	45	0.00	29.940 
17:25	51.4	51.4	51.4	91	48.9	1	4	90	0.00	29.938 
17:30	51.6	51.6	51.6	91	49.1	1	3	68	0.00	29.929 
17:35	51.7	51.7	51.7	91	49.2	1	4	90	0.00	29.927 
17:40	51.7	51.7	51.7	92	49.5	1	4	90	0.00	29.928 
17:45	51.9	51.9	51.9	92	49.6	1	3	22	0.00	29.927 
17:50	52.0	52.0	52.0	92	49.7	1	4	338	0.00	29.927 
17:55	52.0	52.0	52.0	92	49.7	1	4	90	0.00	29.927 
18:00	52.2	52.2	52.2	92	49.9	1	3	112	0.00	29.927 
18:05	52.2	52.2	52.2	92	49.9	1	6	112	0.00	29.930 
18:10	52.3	52.3	52.3	92	50.0	1	5	315	0.00	29.929 
18:15	52.5	52.5	52.5	92	50.2	1	4	248	0.00	29.928 
18:20	52.6	52.6	52.6	92	50.3	1	5	90	0.00	29.927 
18:25	52.6	52.6	52.6	92	50.3	0	3	90	0.00	29.925 
18:30	52.6	52.6	52.6	92	50.3	1	3	270	0.00	29.924 
18:35	52.6	52.6	52.6	92	50.3	1	4	270	0.00	29.921 
18:40	52.8	52.8	52.8	92	50.5	1	6	68	0.00	29.918 
18:45	52.8	52.8	52.8	93	50.8	0	2	68	0.00	29.912 
18:50	52.8	52.8	52.8	93	50.8	1	4	68	0.00	29.911 
18:55	52.8	52.8	52.8	94	51.1	1	4	292	0.00	29.909 
19:00	52.8	52.8	52.8	94	51.1	0	2	45	0.00	29.907 
19:05	52.8	52.8	52.8	94	51.1	0	3	45	0.00	29.902 
19:10	52.8	52.8	52.8	94	51.1	0	2	45	0.00	29.897 
19:15	52.9	52.9	52.9	94	51.2	1	3	45	0.00	29.897 
19:20	53.1	53.1	53.1	94	51.4	0	3	292	0.00	29.900 
19:25	53.2	53.2	53.2	94	51.5	1	5	225	0.00	29.901 
19:30	53.3	53.3	53.3	94	51.6	1	3	248	0.00	29.902 
19:35	53.5	53.5	53.5	94	51.8	0	2	248	0.00	29.904 
19:40	53.6	53.6	53.6	94	51.9	1	3	248	0.00	29.900 
19:45	53.8	53.8	53.8	93	51.8	1	4	270	0.00	29.898 
19:50	53.9	53.9	53.9	93	51.9	1	4	270	0.00	29.897 
19:55	54.1	54.1	54.1	93	52.1	1	3	270	0.00	29.897 
20:00	54.1	54.1	54.1	92	51.8	0	3	270	0.00	29.893 
20:05	54.2	54.2	54.2	92	51.9	1	3	135	0.00	29.891 
20:10	54.4	54.4	54.4	92	52.1	1	3	90	0.00	29.891 
20:15	54.5	54.5	54.5	92	52.2	1	6	270	0.00	29.889 
20:20	54.5	54.5	54.5	92	52.2	1	4	248	0.00	29.887 
20:25	54.5	54.5	54.5	92	52.2	1	3	0	0.00	29.884 
20:30	54.7	54.7	54.7	92	52.4	1	4	270	0.00	29.881 
20:35	54.7	54.7	54.7	92	52.4	1	5	45	0.00	29.880 
20:40	54.7	54.7	54.7	92	52.4	1	5	225	0.00	29.883 
20:45	54.8	54.8	54.8	92	52.5	2	5	270	0.00	29.883 
20:50	55.0	55.0	55.0	92	52.7	1	5	270	0.00	29.884 
20:55	55.1	55.1	55.1	92	52.8	2	7	270	0.00	29.885 
21:00	55.3	55.3	55.3	91	52.7	1	5	248	0.00	29.887 
21:05	55.4	55.4	55.4	91	52.8	1	6	225	0.00	29.882 
21:10	55.4	55.4	55.4	91	52.8	1	3	270	0.00	29.882 
21:15	55.6	55.6	55.6	91	53.0	2	5	270	0.00	29.876 
21:20	55.7	55.7	55.7	91	53.1	1	4	270	0.00	29.874 
21:25	55.9	55.9	55.9	91	53.3	1	5	248	0.00	29.872 
21:30	56.0	56.0	56.0	91	53.4	2	7	248	0.00	29.872 
21:35	56.3	56.3	56.3	91	53.7	2	5	270	0.00	29.871 
21:40	56.6	56.6	56.6	91	54.0	2	6	270	0.00	29.874 
21:45	56.9	56.9	56.9	90	54.0	3	12	248	0.00	29.884 
21:50	57.5	57.5	57.5	89	54.3	3	12	248	0.00	29.886 
21:55	58.0	58.0	58.0	88	54.5	4	10	248	0.00	29.892 
22:00	58.4	58.4	58.4	87	54.5	4	9	248	0.00	29.895 
22:05	58.7	58.7	58.7	86	54.5	4	12	248	0.00	29.895 
22:10	58.7	58.7	58.7	86	54.5	2	6	248	0.00	29.891 
22:15	58.7	58.7	58.7	86	54.5	3	6	248	0.00	29.892 
22:20	58.9	58.9	58.9	85	54.4	4	10	248	0.00	29.889 
22:25	59.0	59.0	59.0	85	54.5	4	9	248	0.00	29.885 
22:30	59.0	59.0	59.0	85	54.5	3	9	225	0.00	29.884 
22:35	59.0	59.0	59.0	85	54.5	3	9	248	0.00	29.883 
22:40	58.9	58.9	58.9	85	54.4	3	8	270	0.00	29.881 
22:45	58.9	58.9	58.9	85	54.4	3	7	248	0.00	29.882 
22:50	58.9	58.9	58.9	85	54.4	3	6	248	0.00	29.882 
22:55	59.0	59.0	59.0	85	54.5	3	10	248	0.00	29.882 
23:00	59.0	59.0	59.0	85	54.5	3	7	248	0.00	29.882 
23:05	59.0	59.0	59.0	84	54.2	3	6	248	0.00	29.879 
23:10	59.0	59.0	59.0	84	54.2	3	9	248	0.00	29.879 
23:15	59.2	59.2	59.2	84	54.4	3	12	248	0.00	29.878 
23:20	59.2	59.2	59.2	84	54.4	4	10	248	0.00	29.879 
23:25	59.3	59.3	59.3	84	54.5	3	7	248	0.00	29.880 
23:30	59.3	59.3	59.3	83	54.1	4	11	270	0.00	29.881 
23:35	59.5	59.5	59.5	83	54.3	4	11	248	0.00	29.882 
23:40	59.6	59.6	59.6	82	54.1	4	11	248	0.00	29.880 
23:45	59.6	59.6	59.6	82	54.1	4	12	248	0.00	29.880 
23:50	59.8	59.8	59.8	82	54.3	4	11	248	0.00	29.880 
23:55	59.8	59.8	59.8	82	54.3	4	10	248	0.00	29.880 

CoCoRaHS
IN-AL-39
A2 Web Hosting
Creative Commons License
GoDaddy
Look for:

loaded 2017-10-19 20:11:56 • last modified 2010-11-18 10:43:29
Privacy PolicyDisclaimer
• wx.awcolley.com is powered by PmWiki v.2002016 •
• all content (unless otherwise noted) © 2017 A W Colley